Time;durP1;ratioP1;P1;durP2;ratioP2;P2;SDS_P1;SDS_P2;PMS_P1;PMS_P2;Temp;Humidity;BMP_temperature;BMP_pressure;BME280_temperature;BME280_humidity;BME280_pressure;Samples;Min_cycle;Max_cycle;Signal;HPM_P1;HPM_P2
2021/06/14 00:00:21;;;;;;;;;8.75;6.25;;;;;23.03;100.00;101884.88;4894642;28;45489;-68
2021/06/14 00:02:47;;;;;;;;;8.75;7.75;;;;;23.06;100.00;101892.69;4898779;28;45644;-68
2021/06/14 00:05:31;;;;;;;;;10.25;7.25;;;;;23.01;100.00;101887.59;4912121;28;46115;-68
2021/06/14 00:07:58;;;;;;;;;10.25;8.25;;;;;23.01;100.00;101890.25;4899709;28;45631;-68
2021/06/14 00:10:26;;;;;;;;;9.00;8.50;;;;;22.98;100.00;101897.53;4911801;28;45495;-68
2021/06/14 00:12:52;;;;;;;;;8.25;7.00;;;;;22.85;100.00;101884.78;4915575;28;45551;-67
2021/06/14 00:15:18;;;;;;;;;9.25;9.00;;;;;22.87;100.00;101901.59;4913380;28;46116;-67
2021/06/14 00:17:43;;;;;;;;;11.25;9.50;;;;;22.85;100.00;101908.75;4917215;28;45436;-68
2021/06/14 00:20:11;;;;;;;;;8.75;8.25;;;;;22.82;100.00;101902.72;4900275;28;45664;-68
2021/06/14 00:22:38;;;;;;;;;8.00;7.75;;;;;22.81;100.00;101915.19;4883532;29;45300;-68
2021/06/14 00:25:07;;;;;;;;;9.00;7.00;;;;;22.78;100.00;101912.63;4901949;28;45645;-68
2021/06/14 00:27:33;;;;;;;;;9.00;7.25;;;;;22.75;100.00;101911.91;4916391;28;45491;-67
2021/06/14 00:29:58;;;;;;;;;9.00;8.00;;;;;22.65;100.00;101898.16;4909521;28;45603;-67
2021/06/14 00:32:24;;;;;;;;;7.00;6.00;;;;;22.68;100.00;101908.69;4909771;28;45463;-67
2021/06/14 00:34:49;;;;;;;;;8.25;6.00;;;;;22.56;100.00;101893.25;4904433;28;45353;-67
2021/06/14 00:37:14;;;;;;;;;5.75;5.00;;;;;22.62;100.00;101914.25;4900380;29;45281;-67
2021/06/14 00:39:40;;;;;;;;;4.00;3.50;;;;;22.45;100.00;101887.56;4900545;29;45385;-67
2021/06/14 00:42:05;;;;;;;;;7.25;6.25;;;;;22.51;100.00;101900.59;4913214;28;45266;-67
2021/06/14 00:44:31;;;;;;;;;6.75;5.25;;;;;22.48;100.00;101904.25;4899688;29;46070;-68
2021/06/14 00:46:56;;;;;;;;;5.00;4.50;;;;;22.47;100.00;101904.31;4900125;29;45334;-68
2021/06/14 00:49:22;;;;;;;;;5.00;5.00;;;;;22.45;100.00;101906.19;4899051;29;45905;-68
2021/06/14 00:51:47;;;;;;;;;4.00;4.00;;;;;22.41;100.00;101894.84;4900562;28;45226;-68
2021/06/14 00:54:13;;;;;;;;;5.00;4.00;;;;;22.37;100.00;101890.56;4900523;29;46389;-68
2021/06/14 00:56:39;;;;;;;;;5.00;5.00;;;;;22.36;100.00;101902.13;4900054;29;45495;-68
2021/06/14 00:59:04;;;;;;;;;4.00;4.00;;;;;22.34;100.00;101897.81;4913497;28;45396;-68
2021/06/14 01:01:29;;;;;;;;;6.00;5.50;;;;;22.34;100.00;101897.81;4883078;29;45388;-68
2021/06/14 01:03:55;;;;;;;;;4.00;3.75;;;;;22.33;100.00;101906.72;4901685;28;47512;-67
2021/06/14 01:06:20;;;;;;;;;5.75;5.25;;;;;22.28;100.00;101896.31;4904327;28;45359;-68
2021/06/14 01:08:49;;;;;;;;;7.00;6.25;;;;;22.24;100.00;101889.41;4906797;28;45779;-68
2021/06/14 01:11:42;;;;;;;;;9.00;6.50;;;;;22.22;100.00;101886.81;4912608;28;45942;-67
2021/06/14 01:14:13;;;;;;;;;6.75;6.00;;;;;22.23;100.00;101891.19;4898600;28;45353;-67
2021/06/14 01:16:57;;;;;;;;;7.25;7.00;;;;;22.21;100.00;101894.84;4909979;28;45480;-67
2021/06/14 01:20:20;;;;;;;;;6.25;6.00;;;;;22.14;100.00;101894.25;4910158;28;45387;-68
2021/06/14 01:23:12;;;;;;;;;7.25;7.25;;;;;22.06;100.00;101900.84;4840493;29;45542;-67
2021/06/14 01:25:54;;;;;;;;;7.75;6.00;;;;;21.82;100.00;101861.06;4841395;29;45555;-68
2021/06/14 01:28:22;;;;;;;;;7.00;7.00;;;;;21.94;100.00;101883.56;4836179;29;45643;-68
2021/06/14 01:30:50;;;;;;;;;8.75;7.50;;;;;21.86;100.00;101873.28;4841687;29;45365;-67
2021/06/14 01:33:18;;;;;;;;;8.00;7.00;;;;;21.85;100.00;101871.56;4841565;29;45478;-67
2021/06/14 01:35:46;;;;;;;;;5.25;4.50;;;;;21.85;100.00;101868.03;4841190;29;48190;-67
2021/06/14 01:38:12;;;;;;;;;7.50;6.75;;;;;21.79;100.00;101865.66;4841089;29;45754;-67
2021/06/14 01:40:39;;;;;;;;;5.75;5.75;;;;;21.75;100.00;101864.06;4833281;29;45470;-67
2021/06/14 01:43:08;;;;;;;;;8.00;6.00;;;;;21.70;100.00;101857.13;4842905;29;45509;-67
2021/06/14 01:45:39;;;;;;;;;7.25;6.25;;;;;21.66;100.00;101852.00;4844193;29;46440;-68
2021/06/14 01:48:06;;;;;;;;;8.00;7.50;;;;;21.68;100.00;101858.97;4825357;29;45530;-68
2021/06/14 01:50:32;;;;;;;;;7.00;6.25;;;;;21.60;100.00;101833.66;4841315;29;45285;-68
2021/06/14 01:52:58;;;;;;;;;7.00;6.25;;;;;21.53;100.00;101824.22;4858411;29;45559;-68
2021/06/14 01:55:24;;;;;;;;;8.25;7.00;;;;;21.60;100.00;101837.19;4912749;28;46426;-68
2021/06/14 01:57:51;;;;;;;;;6.75;6.75;;;;;21.54;100.00;101825.97;4903095;28;45353;-69
2021/06/14 02:00:18;;;;;;;;;7.00;7.00;;;;;21.48;100.00;101823.53;4911212;28;45441;-68
2021/06/14 02:02:45;;;;;;;;;7.00;5.50;;;;;21.52;100.00;101841.97;4891394;29;45409;-68
2021/06/14 02:05:11;;;;;;;;;5.25;5.25;;;;;21.51;100.00;101832.28;4909347;28;47259;-67
2021/06/14 02:07:40;;;;;;;;;5.25;5.25;;;;;21.47;100.00;101824.47;4911705;28;45725;-68
2021/06/14 02:10:06;;;;;;;;;6.50;6.50;;;;;21.39;100.00;101815.03;4902539;28;45404;-67
2021/06/14 02:12:32;;;;;;;;;6.75;6.75;;;;;21.42;100.00;101815.84;4890876;28;45522;-67
2021/06/14 02:14:58;;;;;;;;;6.25;5.75;;;;;21.35;100.00;101813.44;4907874;28;46624;-68
2021/06/14 02:17:29;;;;;;;;;6.25;6.00;;;;;21.37;100.00;101810.72;4911708;28;45203;-67
2021/06/14 02:19:55;;;;;;;;;7.25;6.75;;;;;21.36;100.00;101817.81;4903174;28;45373;-67
2021/06/14 02:22:20;;;;;;;;;7.25;7.00;;;;;21.31;100.00;101809.19;4910297;28;45871;-67
2021/06/14 02:24:46;;;;;;;;;6.00;5.00;;;;;21.13;100.00;101779.84;4892884;28;47422;-68
2021/06/14 02:27:15;;;;;;;;;6.50;6.00;;;;;21.28;100.00;101805.81;4908512;28;45444;-67
2021/06/14 02:29:40;;;;;;;;;6.75;6.75;;;;;21.22;100.00;101798.91;4907503;28;45284;-67
2021/06/14 02:32:07;;;;;;;;;5.75;5.75;;;;;21.22;100.00;101804.22;4889276;29;45589;-67
2021/06/14 02:34:33;;;;;;;;;6.50;6.00;;;;;21.21;100.00;101801.63;4885281;29;45589;-67
2021/06/14 02:37:00;;;;;;;;;6.75;6.50;;;;;21.18;100.00;101807.94;4902575;28;45549;-67
2021/06/14 02:39:29;;;;;;;;;6.50;6.25;;;;;21.18;100.00;101809.72;4902265;28;45467;-67
2021/06/14 02:41:55;;;;;;;;;6.00;5.50;;;;;21.13;100.00;101799.28;4889359;28;45360;-68
2021/06/14 02:44:25;;;;;;;;;6.75;5.75;;;;;21.10;100.00;101810.06;4884924;29;47985;-67
2021/06/14 02:46:54;;;;;;;;;7.25;6.75;;;;;21.10;100.00;101804.75;4901675;28;45614;-67
2021/06/14 02:49:20;;;;;;;;;8.25;7.00;;;;;21.04;100.00;101799.66;4902291;29;45331;-67
2021/06/14 02:51:46;;;;;;;;;8.75;7.00;;;;;21.00;100.00;101796.25;4884960;28;45452;-67
2021/06/14 02:54:29;;;;;;;;;7.00;6.00;;;;;20.98;100.00;101792.81;4901794;29;47125;-67
2021/06/14 02:56:58;;;;;;;;;6.75;6.75;;;;;20.97;100.00;101792.88;4895921;28;45521;-67
2021/06/14 02:59:26;;;;;;;;;7.50;7.00;;;;;20.92;100.00;101797.50;4906954;28;45376;-67
2021/06/14 03:01:52;;;;;;;;;7.25;7.25;;;;;20.89;100.00;101801.16;4905971;28;45417;-67
2021/06/14 03:04:18;;;;;;;;;8.50;8.25;;;;;20.89;100.00;101795.84;4907561;28;46651;-67
2021/06/14 03:06:45;;;;;;;;;6.50;6.50;;;;;20.82;100.00;101783.75;4906008;28;45234;-67
2021/06/14 03:09:11;;;;;;;;;7.00;5.50;;;;;20.73;100.00;101777.00;4908049;28;45372;-67
2021/06/14 03:11:41;;;;;;;;;7.00;6.00;;;;;20.80;100.00;101785.59;4906440;28;45392;-68
2021/06/14 03:14:07;;;;;;;;;7.25;6.50;;;;;20.80;100.00;101790.91;4909942;28;46230;-67
2021/06/14 03:16:33;;;;;;;;;9.75;8.50;;;;;20.77;100.00;101796.31;4906251;28;45524;-68
2021/06/14 03:18:59;;;;;;;;;6.50;6.50;;;;;20.73;100.00;101784.09;4908971;28;45382;-68
2021/06/14 03:21:30;;;;;;;;;6.50;5.75;;;;;20.71;100.00;101797.44;4907449;28;45497;-68
2021/06/14 03:23:55;;;;;;;;;7.00;6.75;;;;;20.72;100.00;101795.66;4907386;28;46613;-68
2021/06/14 03:26:27;;;;;;;;;6.25;5.75;;;;;20.71;100.00;101801.88;4891076;28;46170;-68
2021/06/14 03:28:53;;;;;;;;;9.25;8.00;;;;;20.71;100.00;101801.88;4906384;28;45434;-67
2021/06/14 03:31:19;;;;;;;;;5.75;5.00;;;;;20.68;100.00;101796.72;4911576;28;45487;-68
2021/06/14 03:33:50;;;;;;;;;6.50;6.25;;;;;20.59;100.00;101794.41;4919045;28;46368;-68
2021/06/14 03:36:18;;;;;;;;;8.50;7.50;;;;;20.69;100.00;101822.31;4917699;28;45239;-68
2021/06/14 03:38:45;;;;;;;;;10.00;9.00;;;;;20.58;100.00;101808.59;4919340;28;45412;-69
2021/06/14 03:41:11;;;;;;;;;12.00;11.00;;;;;20.59;100.00;101813.84;4917679;28;45730;-66
2021/06/14 03:43:36;;;;;;;;;10.00;9.00;;;;;20.56;100.00;101821.06;4918587;28;46219;-67
2021/06/14 03:46:02;;;;;;;;;3.00;2.75;;;;;20.46;100.00;101815.25;4919007;28;45352;-67
2021/06/14 03:48:28;;;;;;;;;11.25;9.25;;;;;20.44;100.00;101817.97;4917548;28;45384;-67
2021/06/14 03:50:56;;;;;;;;;3.25;3.00;;;;;20.42;100.00;101827.78;4918945;28;45393;-68
2021/06/14 03:53:30;;;;;;;;;9.50;8.00;;;;;20.36;100.00;101825.28;4917265;28;46116;-67
2021/06/14 03:55:56;;;;;;;;;8.00;7.00;;;;;20.35;100.00;101820.03;4918727;28;45606;-67
2021/06/14 03:58:21;;;;;;;;;8.00;7.25;;;;;20.35;100.00;101826.22;4906243;28;45427;-66
2021/06/14 04:00:46;;;;;;;;;11.00;9.25;;;;;20.30;100.00;101814.06;4919076;28;45431;-67
2021/06/14 04:03:12;;;;;;;;;8.00;7.50;;;;;20.32;100.00;101821.03;4917964;28;46124;-68
2021/06/14 04:05:37;;;;;;;;;7.00;7.00;;;;;20.27;100.00;101811.53;4917733;28;45272;-68
2021/06/14 04:08:02;;;;;;;;;8.00;7.00;;;;;20.27;100.00;101812.38;4916404;28;45652;-67
2021/06/14 04:10:28;;;;;;;;;9.25;8.75;;;;;20.30;100.00;101816.72;4912310;28;45765;-68
2021/06/14 04:12:54;;;;;;;;;9.50;8.00;;;;;20.27;100.00;101811.53;4905931;28;46258;-68
2021/06/14 04:15:20;;;;;;;;;8.50;8.00;;;;;20.25;100.00;101811.59;4892177;28;45547;-68
2021/06/14 04:17:45;;;;;;;;;7.25;7.25;;;;;20.15;100.00;101804.91;4897747;28;45357;-68
2021/06/14 04:20:11;;;;;;;;;12.00;10.75;;;;;20.26;100.00;101821.28;4910933;28;45336;-68
2021/06/14 04:22:36;;;;;;;;;8.25;7.00;;;;;20.26;100.00;101821.28;4913792;28;46575;-68
2021/06/14 04:25:03;;;;;;;;;10.00;8.00;;;;;20.29;100.00;101830.88;4903997;28;45485;-68
2021/06/14 04:27:29;;;;;;;;;7.50;6.75;;;;;20.25;100.00;101830.16;4911690;28;45406;-68
2021/06/14 04:29:54;;;;;;;;;7.50;7.50;;;;;20.23;100.00;101820.53;4909175;28;45875;-68
2021/06/14 04:32:20;;;;;;;;;10.00;9.00;;;;;20.27;100.00;101838.03;4902910;28;46088;-67
2021/06/14 04:34:45;;;;;;;;;9.50;9.00;;;;;20.23;100.00;101829.34;4900342;28;45425;-67
2021/06/14 04:37:11;;;;;;;;;10.25;9.50;;;;;20.24;100.00;101841.69;4900691;28;45346;-69
2021/06/14 04:39:36;;;;;;;;;10.00;9.50;;;;;20.22;100.00;101838.22;4899970;28;45437;-67
2021/06/14 04:42:02;;;;;;;;;12.75;9.00;;;;;20.22;100.00;101845.31;4900075;29;47129;-66
2021/06/14 04:44:27;;;;;;;;;10.75;10.50;;;;;20.10;100.00;101823.59;4899951;29;45383;-67
2021/06/14 04:46:53;;;;;;;;;11.25;9.00;;;;;20.17;100.00;101843.69;4908874;28;45778;-67
2021/06/14 04:49:18;;;;;;;;;10.25;9.25;;;;;20.21;100.00;101852.41;4916795;28;45472;-68
2021/06/14 04:51:43;;;;;;;;;12.00;11.00;;;;;20.23;100.00;101850.56;4913539;28;45419;-68
2021/06/14 04:54:09;;;;;;;;;17.75;16.00;;;;;20.21;100.00;101848.88;4916460;28;45417;-68
2021/06/14 04:56:34;;;;;;;;;15.75;15.50;;;;;20.26;100.00;101858.41;4913630;28;45340;-68
2021/06/14 04:59:00;;;;;;;;;8.25;8.25;;;;;20.31;100.00;101860.88;4912032;28;45448;-68
2021/06/14 05:01:25;;;;;;;;;10.25;9.25;;;;;20.31;100.00;101863.53;4897566;28;47965;-68
2021/06/14 05:03:50;;;;;;;;;11.25;11.00;;;;;20.31;100.00;101861.75;4914883;28;45447;-69
2021/06/14 05:06:16;;;;;;;;;7.75;7.75;;;;;20.28;100.00;101853.03;4916541;28;45379;-69
2021/06/14 05:08:41;;;;;;;;;10.50;9.25;;;;;20.30;100.00;101860.00;4896577;28;45468;-71
2021/06/14 05:11:07;;;;;;;;;10.75;9.75;;;;;20.36;100.00;101870.38;4910710;28;46835;-72
2021/06/14 05:13:32;;;;;;;;;11.75;10.75;;;;;20.39;100.00;101872.94;4902294;28;45480;-72
2021/06/14 05:15:58;;;;;;;;;11.50;10.25;;;;;20.33;100.00;101862.53;4898458;28;46555;-70
2021/06/14 05:18:23;;;;;;;;;12.00;11.00;;;;;20.36;100.00;101870.38;4896154;28;45450;-70
2021/06/14 05:20:48;;;;;;;;;10.75;10.50;;;;;20.42;100.00;101880.81;4904437;28;46642;-68
2021/06/14 05:23:14;;;;;;;;;13.50;10.25;;;;;20.40;100.00;101873.81;4897138;28;45382;-71
2021/06/14 05:25:39;;;;;;;;;12.00;11.00;;;;;20.32;100.00;101859.94;4894554;28;45480;-70
2021/06/14 05:28:05;;;;;;;;;10.75;10.75;;;;;20.44;100.00;101872.81;4901108;28;45766;-72
2021/06/14 05:30:34;;;;;;;;;12.00;10.50;;;;;20.48;100.00;101879.72;4901212;28;47047;-70
2021/06/14 05:32:59;;;;;;;;;12.50;11.50;;;;;20.42;100.00;101856.94;4914237;28;45409;-68
2021/06/14 05:35:25;;;;;;;;;10.50;10.50;;;;;20.50;100.00;101869.91;4902903;28;45440;-71
2021/06/14 05:37:50;;;;;;;;;13.00;10.75;;;;;20.49;100.00;101854.91;4902270;28;45380;-70
2021/06/14 05:40:17;;;;;;;;;9.75;9.50;;;;;20.58;100.00;101851.03;4900369;28;45569;-76
2021/06/14 05:42:43;;;;;;;;;10.50;9.50;;;;;20.67;100.00;101866.63;4899397;28;45377;-70
2021/06/14 05:45:09;;;;;;;;;11.00;10.00;;;;;20.65;100.00;101855.22;4901971;28;45508;-69
2021/06/14 05:47:35;;;;;;;;;9.50;9.00;;;;;20.76;100.00;101861.81;4900137;28;45632;-68
2021/06/14 05:50:03;;;;;;;;;10.75;9.00;;;;;20.81;100.00;101866.94;4899873;28;46239;-69
2021/06/14 05:52:28;;;;;;;;;8.50;8.00;;;;;20.90;100.00;101865.75;4900965;28;45576;-75
2021/06/14 05:54:53;;;;;;;;;9.75;9.75;;;;;20.95;100.00;101866.41;4900722;28;46417;-73
2021/06/14 05:57:19;;;;;;;;;11.50;10.75;;;;;21.04;100.00;101869.56;4903724;28;45592;-77
2021/06/14 05:59:44;;;;;;;;;11.00;10.25;;;;;21.08;100.00;101880.94;4902847;28;46458;-81
2021/06/14 06:02:10;;;;;;;;;11.25;9.50;;;;;21.13;100.00;101880.75;4889843;28;45449;-82
2021/06/14 06:04:35;;;;;;;;;11.50;11.50;;;;;21.14;100.00;101886.00;4905147;28;45328;-82
2021/06/14 06:07:01;;;;;;;;;11.50;11.50;;;;;21.15;100.00;101873.59;4889954;28;45644;-81
2021/06/14 06:09:26;;;;;;;;;12.25;11.75;;;;;21.22;100.00;101883.91;4901690;28;45670;-81
2021/06/14 06:11:52;;;;;;;;;11.50;10.50;;;;;21.25;100.00;101877.63;4905142;28;45451;-82
2021/06/14 06:14:18;;;;;;;;;12.50;10.75;;;;;21.27;100.00;101875.78;4905262;28;45296;-81
2021/06/14 06:16:43;;;;;;;;;12.75;11.75;;;;;21.26;100.00;101868.72;4904811;28;45549;-83
2021/06/14 06:19:09;;;;;;;;;12.75;12.25;;;;;21.34;100.00;101869.31;4901444;28;46472;-82
2021/06/14 06:21:35;;;;;;;;;14.00;11.25;;;;;21.30;100.00;101849.13;4904893;28;45215;-81
2021/06/14 06:24:00;;;;;;;;;12.00;12.00;;;;;21.47;100.00;101865.19;4905450;28;45441;-82
2021/06/14 06:26:26;;;;;;;;;12.50;12.25;;;;;21.55;100.00;101864.91;4887935;29;45303;-80
2021/06/14 06:28:51;;;;;;;;;17.75;14.25;;;;;21.58;100.00;101860.31;4902803;28;46516;-81
2021/06/14 06:31:17;;;;;;;;;14.25;11.25;;;;;21.70;100.00;101874.84;4913054;28;45377;-81
2021/06/14 06:33:43;;;;;;;;;10.75;10.00;;;;;21.74;100.00;101857.00;4912497;28;45537;-81
2021/06/14 06:36:12;;;;;;;;;8.75;7.50;;;;;21.84;100.00;101867.16;4902130;28;45424;-82
2021/06/14 06:38:37;;;;;;;;;9.50;9.50;;;;;21.91;100.00;101862.44;4901545;29;45658;-81
2021/06/14 06:41:04;;;;;;;;;11.75;10.00;;;;;21.98;100.00;101862.13;4882738;29;45478;-82
2021/06/14 06:43:30;;;;;;;;;9.00;8.50;;;;;22.01;100.00;101848.69;4902184;28;45333;-81
2021/06/14 06:45:55;;;;;;;;;11.75;10.00;;;;;22.05;100.00;101841.47;4900367;29;45433;-81
2021/06/14 06:48:21;;;;;;;;;9.00;9.00;;;;;22.14;100.00;101853.47;4901753;28;45360;-81
2021/06/14 06:50:46;;;;;;;;;8.25;8.00;;;;;22.18;100.00;101850.63;4900850;28;46043;-81
2021/06/14 06:53:11;;;;;;;;;9.00;8.00;;;;;22.22;100.00;101840.72;4902021;28;45345;-81
2021/06/14 06:55:37;;;;;;;;;9.75;7.75;;;;;22.34;100.00;101850.78;4882605;29;45513;-80
2021/06/14 06:58:03;;;;;;;;;9.25;8.00;;;;;22.39;100.00;101855.88;4884575;29;46949;-81
2021/06/14 07:00:30;;;;;;;;;9.00;8.00;;;;;22.50;100.00;101853.63;4900904;29;45586;-81
2021/06/14 07:02:55;;;;;;;;;9.50;7.50;;;;;22.46;100.00;101836.94;4901970;29;45467;-79
2021/06/14 07:05:21;;;;;;;;;8.00;6.75;;;;;22.64;100.00;101852.97;4899823;28;45368;-81
2021/06/14 07:07:46;;;;;;;;;8.00;7.50;;;;;22.64;100.00;101840.53;4901746;28;45587;-81
2021/06/14 07:10:12;;;;;;;;;8.50;7.50;;;;;22.77;100.00;101851.44;4896519;28;45471;-78
2021/06/14 07:12:38;;;;;;;;;10.00;8.25;;;;;22.76;100.00;101847.94;4902812;28;45414;-80
2021/06/14 07:15:07;;;;;;;;;8.75;8.50;;;;;22.79;100.00;101838.94;4900226;28;45195;-81
2021/06/14 07:17:32;;;;;;;;;8.00;8.00;;;;;22.87;100.00;101842.13;4900493;28;46202;-80
2021/06/14 07:19:57;;;;;;;;;8.25;8.25;;;;;22.94;100.00;101837.38;4902485;28;45261;-80
2021/06/14 07:22:23;;;;;;;;;8.50;8.50;;;;;22.90;100.00;101826.00;4900755;28;45345;-81
2021/06/14 07:24:48;;;;;;;;;9.00;8.00;;;;;23.00;100.00;101834.41;4903037;28;45585;-82
2021/06/14 07:27:14;;;;;;;;;8.75;8.00;;;;;23.11;100.00;101842.75;4900344;28;45462;-79
2021/06/14 07:29:39;;;;;;;;;11.00;7.75;;;;;23.15;100.00;101836.31;4902373;28;45479;-80
2021/06/14 07:32:05;;;;;;;;;8.00;7.75;;;;;23.19;100.00;101840.56;4905720;28;45511;-80
2021/06/14 07:34:31;;;;;;;;;10.75;8.75;;;;;23.21;100.00;101826.22;4901070;29;45419;-82
2021/06/14 07:36:57;;;;;;;;;11.25;10.50;;;;;23.31;100.00;101839.97;4884277;29;47609;-82
2021/06/14 07:39:23;;;;;;;;;10.25;10.00;;;;;23.34;100.00;101834.47;4881666;29;45279;-81
2021/06/14 07:41:48;;;;;;;;;9.50;8.00;;;;;23.43;100.00;101841.13;4901340;28;45496;-82
2021/06/14 07:44:14;;;;;;;;;10.00;8.25;;;;;23.47;100.00;101846.22;4900986;28;45381;-81
2021/06/14 07:46:40;;;;;;;;;12.25;10.25;;;;;23.50;100.00;101837.22;4900988;28;46202;-81
2021/06/14 07:49:06;;;;;;;;;10.00;10.00;;;;;23.57;100.00;101838.69;4908275;28;45357;-81
2021/06/14 07:51:31;;;;;;;;;9.00;7.00;;;;;23.62;100.00;101825.09;4912263;28;45567;-81
2021/06/14 07:53:57;;;;;;;;;9.75;8.25;;;;;23.62;100.00;101806.44;4916257;28;45173;-81
2021/06/14 07:56:22;;;;;;;;;7.75;7.25;;;;;23.68;100.00;101812.31;4896719;28;47269;-82
2021/06/14 07:58:48;;;;;;;;;7.75;6.25;;;;;23.80;100.00;101822.34;4892212;29;46562;-82
2021/06/14 08:01:14;;;;;;;;;11.00;8.75;;;;;23.86;100.00;101826.50;4907702;28;45514;-81
2021/06/14 08:03:40;;;;;;;;;11.25;8.00;;;;;23.86;100.00;101818.50;4906214;28;45334;-81
2021/06/14 08:06:06;;;;;;;;;9.50;8.00;;;;;23.92;100.00;101818.16;4916030;28;45967;-81
2021/06/14 08:08:33;;;;;;;;;8.00;7.00;;;;;23.98;100.00;101825.81;4900941;28;45510;-79
2021/06/14 08:11:00;;;;;;;;;7.00;7.00;;;;;23.89;100.00;101798.78;4907591;28;45361;-81
2021/06/14 08:13:25;;;;;;;;;6.00;6.00;;;;;24.07;100.00;101814.69;4911129;28;45266;-82
2021/06/14 08:15:51;;;;;;;;;10.00;8.00;;;;;24.14;100.00;101809.88;4915600;28;45412;-82
2021/06/14 08:26:29;;;;;;;;;9.00;8.00;;;;;24.32;100.00;101792.03;4849889;29;45495;-80
2021/06/14 08:28:57;;;;;;;;;8.00;7.75;;;;;24.39;100.00;101793.41;4833944;29;45483;-80
2021/06/14 08:31:23;;;;;;;;;7.75;7.50;;;;;24.39;100.00;101782.72;4845478;29;45385;-82
2021/06/14 08:33:49;;;;;;;;;8.75;8.00;;;;;24.36;100.00;101758.88;4849780;29;45824;-81
2021/06/14 08:36:14;;;;;;;;;8.00;7.00;;;;;24.51;100.00;101773.19;4841158;29;46197;-81
2021/06/14 08:38:40;;;;;;;;;8.25;6.00;;;;;24.59;100.00;101774.47;4840974;29;45474;-81
2021/06/14 08:41:05;;;;;;;;;7.25;7.00;;;;;24.77;100.00;101783.25;4826831;29;45428;-82
2021/06/14 08:43:32;;;;;;;;;8.00;7.75;;;;;24.99;100.00;101777.56;4840442;29;45782;-82
2021/06/14 08:45:57;;;;;;;;;7.00;7.00;;;;;25.13;100.00;101766.94;4840615;29;46019;-82
2021/06/14 08:48:24;;;;;;;;;8.00;6.75;;;;;25.33;99.17;101771.94;4840878;29;45483;-83
2021/06/14 08:50:50;;;;;;;;;8.25;7.00;;;;;25.49;98.80;101761.19;4840990;29;45281;-82
2021/06/14 08:53:16;;;;;;;;;6.00;6.00;;;;;25.74;96.81;101768.63;4840589;29;46857;-82
2021/06/14 08:55:41;;;;;;;;;10.50;7.00;;;;;25.91;98.96;101773.78;4841745;29;46466;-82
2021/06/14 08:58:07;;;;;;;;;7.50;6.25;;;;;26.17;96.65;101782.88;4879383;29;45527;-78
2021/06/14 09:00:34;;;;;;;;;6.25;6.25;;;;;26.41;95.43;101782.28;4898059;28;45393;-81
2021/06/14 09:03:00;;;;;;;;;9.75;8.00;;;;;26.58;96.49;101757.97;4896907;29;46171;-82
2021/06/14 09:05:26;;;;;;;;;7.25;6.50;;;;;26.96;96.90;101768.84;4900398;28;46044;-78
2021/06/14 09:07:55;;;;;;;;;6.00;5.25;;;;;27.22;92.24;101764.44;4905633;28;45562;-83
2021/06/14 09:10:28;;;;;;;;;7.25;7.00;;;;;27.55;90.61;101765.75;4900780;28;45608;-82
2021/06/14 09:12:55;;;;;;;;;7.25;7.00;;;;;27.90;91.08;101764.19;4910707;28;45349;-79
2021/06/14 09:15:26;;;;;;;;;8.00;7.00;;;;;28.33;86.77;101764.69;4900236;28;46582;-78
2021/06/14 09:17:53;;;;;;;;;2.75;2.75;;;;;28.77;88.52;101765.06;4904744;28;45649;-82
2021/06/14 09:20:18;;;;;;;;;6.00;5.25;;;;;29.27;83.66;101762.13;4898911;28;45277;-80
2021/06/14 09:22:44;;;;;;;;;8.25;7.00;;;;;29.86;84.37;101769.22;4912404;28;45318;-83
2021/06/14 09:25:14;;;;;;;;;7.00;7.00;;;;;30.55;80.83;101751.06;4898945;28;46144;-82
2021/06/14 09:27:44;;;;;;;;;9.25;6.00;;;;;31.48;77.07;101758.56;4904717;28;45665;-80
2021/06/14 09:30:29;;;;;;;;;6.00;5.00;;;;;32.32;73.22;101741.19;4887909;29;45487;-82
2021/06/14 09:32:57;;;;;;;;;4.75;3.25;;;;;33.40;69.67;101757.38;4916842;28;45549;-81
2021/06/14 09:35:30;;;;;;;;;7.00;7.00;;;;;34.32;67.33;101752.91;4897937;29;45442;-80
2021/06/14 09:37:56;;;;;;;;;7.00;5.00;;;;;35.16;66.04;101752.63;4899596;29;45384;-82
2021/06/14 09:40:43;;;;;;;;;5.50;4.50;;;;;36.08;63.59;101753.91;4879425;29;45474;-81
2021/06/14 09:43:36;;;;;;;;;8.00;5.00;;;;;36.89;59.88;101743.25;4895710;29;45428;-81
2021/06/14 09:46:05;;;;;;;;;6.75;6.75;;;;;37.88;58.31;101750.31;4897450;29;45463;-83
2021/06/14 09:48:35;;;;;;;;;4.50;4.00;;;;;38.64;53.83;101746.88;4906778;28;45524;-81
2021/06/14 09:51:01;;;;;;;;;7.50;5.00;;;;;39.20;52.66;101737.41;4902104;28;45505;-84
2021/06/14 09:53:35;;;;;;;;;5.00;4.50;;;;;39.80;48.59;101744.63;4889752;28;45476;-83
2021/06/14 09:56:14;;;;;;;;;5.50;5.50;;;;;40.57;47.39;101743.31;4886430;29;46438;-83
2021/06/14 09:58:41;;;;;;;;;4.25;4.25;;;;;41.24;45.11;101742.91;4882330;28;46804;-80
2021/06/14 10:01:07;;;;;;;;;4.75;4.75;;;;;41.93;44.71;101748.41;4903796;28;45448;-83
2021/06/14 10:03:48;;;;;;;;;5.00;5.00;;;;;42.66;42.77;101751.44;4899692;28;46493;-82
2021/06/14 10:06:25;;;;;;;;;4.50;3.75;;;;;43.19;38.37;101754.22;4898507;28;46365;-81
2021/06/14 10:08:51;;;;;;;;;5.00;4.00;;;;;43.57;37.21;101741.50;4906328;28;45463;-81
2021/06/14 10:11:17;;;;;;;;;5.50;5.00;;;;;44.11;37.84;101743.06;4904351;28;45374;-81
2021/06/14 10:13:45;;;;;;;;;7.00;6.50;;;;;44.32;32.42;101749.31;4895879;28;45452;-82
2021/06/14 10:16:14;;;;;;;;;6.00;5.25;;;;;44.28;32.29;101744.25;4909595;28;45277;-80
2021/06/14 10:18:43;;;;;;;;;4.50;4.50;;;;;44.35;31.26;101748.84;4900484;28;45551;-79
2021/06/14 10:21:24;;;;;;;;;5.00;5.00;;;;;44.26;31.01;101748.28;4910884;28;45428;-81
2021/06/14 10:23:55;;;;;;;;;14.25;13.50;;;;;43.82;29.76;101749.09;4891066;28;45383;-81
2021/06/14 10:26:22;;;;;;;;;25.75;24.25;;;;;42.60;31.17;101752.28;4891464;29;47555;-80
2021/06/14 10:28:49;;;;;;;;;4.25;4.25;;;;;41.31;32.53;101746.53;4904354;28;45296;-81
2021/06/14 10:31:15;;;;;;;;;4.75;4.50;;;;;40.29;33.02;101744.03;4908049;28;45470;-80
2021/06/14 10:33:41;;;;;;;;;5.25;5.00;;;;;39.60;33.71;101740.75;4912825;28;45405;-80
2021/06/14 10:36:08;;;;;;;;;6.50;5.25;;;;;39.50;37.98;101748.38;4899923;28;46216;-80
2021/06/14 10:38:38;;;;;;;;;6.50;5.00;;;;;40.10;35.74;101739.16;4901417;29;45246;-81
2021/06/14 10:41:04;;;;;;;;;3.25;3.00;;;;;41.06;33.13;101758.97;4902398;29;45414;-80
2021/06/14 10:43:31;;;;;;;;;4.50;4.50;;;;;41.43;32.26;101752.34;4901476;28;45384;-82
2021/06/14 10:45:57;;;;;;;;;4.00;3.75;;;;;41.74;33.41;101750.00;4883116;29;46328;-83
2021/06/14 10:48:34;;;;;;;;;5.50;4.25;;;;;42.41;31.50;101735.53;4900926;28;45314;-80
2021/06/14 10:51:02;;;;;;;;;3.75;3.75;;;;;43.07;29.83;101732.06;4899639;28;45355;-81
2021/06/14 10:53:30;;;;;;;;;6.50;5.25;;;;;43.15;28.21;101737.31;4902621;29;45529;-84
2021/06/14 10:55:58;;;;;;;;;5.50;4.25;;;;;42.98;28.67;101727.81;4883959;29;48526;-81
2021/06/14 10:58:23;;;;;;;;;3.50;3.50;;;;;42.78;28.12;101727.81;4901854;28;45590;-82
2021/06/14 11:01:07;;;;;;;;;4.75;3.75;;;;;42.49;27.07;101731.75;4899850;28;45415;-82
2021/06/14 11:03:37;;;;;;;;;5.25;4.25;;;;;42.32;28.59;101738.66;4902242;28;45286;-81
2021/06/14 11:06:02;;;;;;;;;5.75;4.50;;;;;42.03;28.44;101726.91;4879829;28;47395;-80
2021/06/14 11:08:30;;;;;;;;;4.50;4.50;;;;;42.08;27.61;101734.56;4909048;28;45408;-81
2021/06/14 11:10:59;;;;;;;;;5.50;4.75;;;;;42.28;25.88;101735.47;4890781;29;45512;-81
2021/06/14 11:13:24;;;;;;;;;5.25;5.00;;;;;42.18;27.05;101733.13;4908657;28;45717;-78
2021/06/14 11:15:55;;;;;;;;;6.00;5.00;;;;;42.01;27.42;101736.41;4901302;28;46205;-80
2021/06/14 11:18:26;;;;;;;;;7.50;7.00;;;;;41.34;27.98;101723.34;4908288;28;45580;-80
2021/06/14 11:21:05;;;;;;;;;4.50;4.50;;;;;40.68;29.72;101720.84;4905027;28;45395;-78
2021/06/14 11:23:30;;;;;;;;;5.50;4.75;;;;;39.85;30.89;101714.00;4906797;28;45430;-79
2021/06/14 11:25:57;;;;;;;;;3.75;3.25;;;;;39.42;31.10;101718.41;4907200;28;45421;-78